Time;durP1;ratioP1;P1;durP2;ratioP2;P2;SDS_P1;SDS_P2;PMS_P1;PMS_P2;Temp;Humidity;BMP_temperature;BMP_pressure;BME280_temperature;BME280_humidity;BME280_pressure;Samples;Min_cycle;Max_cycle;Signal;HPM_P1;HPM_P2
2022/10/20 00:01:17;;;;;;;;;;;;;;;22.12;58.64;100873.94;7288183;19;153264;-58
2022/10/20 00:03:44;;;;;;;;;;;;;;;22.11;58.88;100870.28;7283858;19;154270;-58
2022/10/20 00:06:18;;;;;;;;;;;;;;;22.10;58.41;100868.63;7283493;19;152962;-58
2022/10/20 00:08:46;;;;;;;;;;;;;;;22.11;58.63;100866.63;7287415;19;152906;-59
2022/10/20 00:11:14;;;;;;;;;;;;;;;22.10;58.60;100860.16;7285904;19;156207;-58
2022/10/20 00:13:42;;;;;;;;;;;;;;;22.10;58.85;100848.09;7286986;19;151849;-58
2022/10/20 00:16:08;;;;;;;;;;;;;;;22.11;58.77;100846.94;7285012;19;153734;-58
2022/10/20 00:18:35;;;;;;;;;;;;;;;22.09;58.78;100829.53;7286309;19;153976;-59
2022/10/20 00:21:06;;;;;;;;;;;;;;;22.10;58.87;100825.56;7292896;19;152870;-58
2022/10/20 00:23:32;;;;;;;;;;;;;;;22.09;58.95;100805.03;7285496;19;153883;-58
2022/10/20 00:26:03;;;;;;;;;;;;;;;22.09;59.26;100804.19;7285802;19;153776;-59
2022/10/20 00:28:29;;;;;;;;;;;;;;;22.08;59.19;100794.94;7286036;19;153347;-58
2022/10/20 00:30:56;;;;;;;;;;;;;;;22.07;59.29;100796.09;7285261;19;152519;-59
2022/10/20 00:33:23;;;;;;;;;;;;;;;22.07;59.20;100807.38;7286658;19;152621;-58
2022/10/20 00:35:50;;;;;;;;;;;;;;;22.08;59.49;100816.59;7286133;19;152840;-58
2022/10/20 00:38:17;;;;;;;;;;;;;;;22.09;59.47;100804.19;7284186;19;153878;-59
2022/10/20 00:41:04;;;;;;;;;;;;;;;22.07;59.38;100813.00;7282733;19;152477;-58
2022/10/20 00:43:50;;;;;;;;;;;;;;;22.06;59.88;100796.41;7292776;19;153470;-59
2022/10/20 00:46:22;;;;;;;;;;;;;;;22.06;59.80;100793.59;7285543;19;152376;-59
2022/10/20 00:48:53;;;;;;;;;;;;;;;22.06;59.70;100785.16;7286907;19;153613;-59
2022/10/20 00:51:23;;;;;;;;;;;;;;;22.06;60.07;100794.44;7283701;19;152826;-59
2022/10/20 00:53:52;;;;;;;;;;;;;;;22.07;59.72;100792.47;7285928;19;151783;-59
2022/10/20 00:56:19;;;;;;;;;;;;;;;22.04;59.75;100787.47;7285815;19;152360;-59
2022/10/20 00:58:46;;;;;;;;;;;;;;;22.05;60.10;100797.56;7285292;19;154494;-59
2022/10/20 01:01:13;;;;;;;;;;;;;;;22.05;60.11;100797.56;7284322;19;152626;-59
2022/10/20 01:03:45;;;;;;;;;;;;;;;22.04;59.72;100793.91;7292561;19;153030;-59
2022/10/20 01:06:13;;;;;;;;;;;;;;;22.03;59.96;100792.25;7283418;19;152887;-59
2022/10/20 01:08:40;;;;;;;;;;;;;;;22.03;60.03;100797.06;7281676;19;152923;-59
2022/10/20 01:11:13;;;;;;;;;;;;;;;22.03;60.23;100803.50;7264364;19;154208;-59
2022/10/20 01:13:42;;;;;;;;;;;;;;;22.03;60.34;100791.44;7276240;19;152260;-59
2022/10/20 01:16:20;;;;;;;;;;;;;;;22.02;60.23;100804.69;7285471;19;153728;-59
2022/10/20 01:18:47;;;;;;;;;;;;;;;22.03;60.21;100799.88;7284041;19;153280;-59
2022/10/20 01:21:32;;;;;;;;;;;;;;;22.01;59.94;100791.75;7286306;19;152888;-59
2022/10/20 01:24:06;;;;;;;;;;;;;;;22.01;60.29;100786.13;7283563;19;153912;-58
2022/10/20 01:27:11;;;;;;;;;;;;;;;22.00;60.36;100776.03;7288963;19;152787;-58
2022/10/20 01:29:45;;;;;;;;;;;;;;;22.01;60.29;100769.25;7281951;19;153510;-58
2022/10/20 01:32:30;;;;;;;;;;;;;;;22.00;60.13;100778.00;7279636;19;154382;-58
2022/10/20 01:35:00;;;;;;;;;;;;;;;22.02;60.54;100778.53;7283888;19;152526;-58
2022/10/20 01:37:40;;;;;;;;;;;;;;;22.03;60.34;100775.38;7283264;19;153196;-59
2022/10/20 01:40:17;;;;;;;;;;;;;;;22.02;60.77;100784.16;7284094;19;153917;-59
2022/10/20 01:42:45;;;;;;;;;;;;;;;22.01;60.36;100780.50;7281568;19;152271;-59
2022/10/20 01:45:14;;;;;;;;;;;;;;;22.01;60.54;100782.47;7283047;19;153361;-60
2022/10/20 01:47:41;;;;;;;;;;;;;;;22.02;60.20;100786.97;7283395;19;154159;-59
2022/10/20 01:50:09;;;;;;;;;;;;;;;22.00;60.67;100786.44;7293152;19;151918;-59
2022/10/20 01:52:36;;;;;;;;;;;;;;;21.98;60.72;100786.78;7282583;19;153271;-58
2022/10/20 01:55:13;;;;;;;;;;;;;;;21.98;60.83;100781.16;7284810;19;151834;-58
2022/10/20 01:57:46;;;;;;;;;;;;;;;21.97;60.83;100782.31;7279953;19;154022;-59
2022/10/20 02:00:14;;;;;;;;;;;;;;;21.96;60.66;100777.81;7283617;19;153703;-59
2022/10/20 02:03:05;;;;;;;;;;;;;;;21.97;60.66;100767.41;7283639;19;152172;-59
2022/10/20 02:05:47;;;;;;;;;;;;;;;21.96;60.81;100762.94;7282763;19;153166;-59
2022/10/20 02:08:25;;;;;;;;;;;;;;;21.95;61.17;100758.44;7284686;19;153836;-59
2022/10/20 02:10:55;;;;;;;;;;;;;;;21.96;61.20;100755.31;7280841;19;152431;-58
2022/10/20 02:13:22;;;;;;;;;;;;;;;21.96;61.06;100754.47;7290552;19;152242;-58
2022/10/20 02:15:51;;;;;;;;;;;;;;;21.96;61.43;100751.66;7283637;19;152322;-58
2022/10/20 02:18:21;;;;;;;;;;;;;;;21.94;61.22;100723.84;7283712;19;152776;-58
2022/10/20 02:20:51;;;;;;;;;;;;;;;21.94;61.62;100723.84;7281874;19;154112;-58
2022/10/20 02:23:17;;;;;;;;;;;;;;;21.94;61.40;100725.88;7285251;19;152288;-58
2022/10/20 02:25:47;;;;;;;;;;;;;;;21.93;61.58;100718.56;7281364;19;152998;-59
2022/10/20 02:28:14;;;;;;;;;;;;;;;21.93;61.49;100710.13;7281763;19;153893;-58
2022/10/20 02:30:41;;;;;;;;;;;;;;;21.92;62.08;100712.06;7282937;19;152097;-59
2022/10/20 02:33:08;;;;;;;;;;;;;;;21.93;62.05;100718.56;7284487;19;154225;-58
2022/10/20 02:35:35;;;;;;;;;;;;;;;21.92;61.75;100709.25;7290477;19;153668;-58
2022/10/20 02:38:02;;;;;;;;;;;;;;;21.92;61.72;100703.63;7283896;19;152304;-58
2022/10/20 02:40:29;;;;;;;;;;;;;;;21.93;62.10;100707.31;7282327;19;153427;-58
2022/10/20 02:42:55;;;;;;;;;;;;;;;21.93;61.94;100699.72;7280693;19;152710;-58
2022/10/20 02:45:22;;;;;;;;;;;;;;;21.93;61.88;100693.25;7281189;19;152544;-59
2022/10/20 02:47:48;;;;;;;;;;;;;;;21.93;61.89;100696.06;7279808;19;152425;-59
2022/10/20 02:50:15;;;;;;;;;;;;;;;21.92;62.01;100686.75;7280477;19;152207;-58
2022/10/20 02:52:42;;;;;;;;;;;;;;;21.93;62.03;100682.00;7282819;19;152385;-59
2022/10/20 02:55:09;;;;;;;;;;;;;;;21.91;62.17;100682.28;7281467;19;152633;-59
2022/10/20 02:57:36;;;;;;;;;;;;;;;21.92;62.04;100686.75;7286605;19;152142;-59
2022/10/20 03:00:05;;;;;;;;;;;;;;;21.91;62.28;100687.91;7281005;19;154116;-59
2022/10/20 03:02:33;;;;;;;;;;;;;;;21.91;62.37;100689.88;7282429;19;152332;-59
2022/10/20 03:05:00;;;;;;;;;;;;;;;21.90;62.02;100693.84;7280151;19;154135;-59
2022/10/20 03:07:26;;;;;;;;;;;;;;;21.90;62.22;100676.97;7281360;19;154806;-59
2022/10/20 03:09:53;;;;;;;;;;;;;;;21.89;62.46;100672.53;7277399;19;152343;-59
2022/10/20 03:12:20;;;;;;;;;;;;;;;21.89;62.15;100669.72;7278212;19;153745;-60
2022/10/20 03:14:46;;;;;;;;;;;;;;;21.89;62.39;100664.09;7281277;19;154271;-60
2022/10/20 03:17:13;;;;;;;;;;;;;;;21.89;62.25;100667.72;7289310;19;151952;-59
2022/10/20 03:19:40;;;;;;;;;;;;;;;21.88;62.23;100660.44;7282176;19;153816;-59
2022/10/20 03:22:06;;;;;;;;;;;;;;;21.88;62.21;100657.63;7280684;19;152164;-59
2022/10/20 03:24:33;;;;;;;;;;;;;;;21.89;62.11;100655.66;7281716;19;152277;-59
2022/10/20 03:27:04;;;;;;;;;;;;;;;21.87;62.63;100653.16;7276168;19;154071;-59
2022/10/20 03:29:31;;;;;;;;;;;;;;;21.87;62.09;100649.50;7282998;19;152333;-60
2022/10/20 03:31:58;;;;;;;;;;;;;;;21.87;62.31;100663.56;7279370;19;153678;-60
2022/10/20 03:34:24;;;;;;;;;;;;;;;21.86;62.63;100665.53;7281463;19;152936;-59
2022/10/20 03:37:00;;;;;;;;;;;;;;;21.86;62.34;100664.72;7280529;19;151903;-59
2022/10/20 03:39:27;;;;;;;;;;;;;;;21.85;62.58;100675.13;7287992;19;152345;-60
2022/10/20 03:41:54;;;;;;;;;;;;;;;21.86;62.73;100681.59;7277484;19;151968;-60
2022/10/20 03:44:21;;;;;;;;;;;;;;;21.84;62.64;100676.31;7282050;19;152624;-60
2022/10/20 03:46:48;;;;;;;;;;;;;;;21.84;62.94;100659.44;7275022;19;152407;-60
2022/10/20 03:49:14;;;;;;;;;;;;;;;21.84;62.69;100650.16;7280481;19;151960;-60
2022/10/20 03:51:41;;;;;;;;;;;;;;;21.84;62.66;100651.00;7280793;19;152779;-59
2022/10/20 03:54:08;;;;;;;;;;;;;;;21.83;62.65;100660.56;7279708;19;153545;-59
2022/10/20 03:56:35;;;;;;;;;;;;;;;21.82;63.28;100658.09;7277446;19;152213;-59
2022/10/20 03:59:01;;;;;;;;;;;;;;;21.82;63.45;100670.16;7280773;19;153250;-59
2022/10/20 04:01:31;;;;;;;;;;;;;;;21.82;63.07;100667.34;7287103;19;151969;-59
2022/10/20 04:03:57;;;;;;;;;;;;;;;21.83;63.49;100665.38;7278986;19;153185;-60
2022/10/20 04:06:24;;;;;;;;;;;;;;;21.83;63.67;100662.56;7277358;19;154213;-60
2022/10/20 04:08:51;;;;;;;;;;;;;;;21.83;63.42;100665.38;7279778;19;152348;-60
2022/10/20 04:11:18;;;;;;;;;;;;;;;21.82;63.35;100664.53;7275645;19;152432;-60
2022/10/20 04:13:44;;;;;;;;;;;;;;;21.82;63.63;100655.28;7279172;19;153372;-60
2022/10/20 04:16:11;;;;;;;;;;;;;;;21.80;63.63;100650.00;7280698;19;152548;-60
2022/10/20 04:18:38;;;;;;;;;;;;;;;21.81;63.88;100642.34;7281989;19;152749;-60
2022/10/20 04:21:04;;;;;;;;;;;;;;;21.81;64.07;100640.38;7277165;19;152501;-60
2022/10/20 04:23:31;;;;;;;;;;;;;;;21.81;63.60;100639.53;7296711;19;151958;-60
2022/10/20 04:25:58;;;;;;;;;;;;;;;21.81;63.72;100628.28;7280874;19;152711;-60
2022/10/20 04:28:25;;;;;;;;;;;;;;;21.80;64.30;100630.31;7286888;19;152112;-60
2022/10/20 04:30:51;;;;;;;;;;;;;;;21.80;64.29;100627.50;7286541;19;153408;-60
2022/10/20 04:33:18;;;;;;;;;;;;;;;21.80;64.13;100621.88;7284962;19;154075;-60
2022/10/20 04:35:45;;;;;;;;;;;;;;;21.80;63.97;100619.06;7287372;19;151872;-60
2022/10/20 04:38:11;;;;;;;;;;;;;;;21.79;64.35;100608.13;7287193;19;153115;-60
2022/10/20 04:40:38;;;;;;;;;;;;;;;21.80;64.22;100604.16;7285755;19;154173;-60
2022/10/20 04:43:04;;;;;;;;;;;;;;;21.79;64.33;100599.69;7283114;19;152126;-60
2022/10/20 04:45:31;;;;;;;;;;;;;;;21.79;63.99;100603.31;7293523;19;153092;-60
2022/10/20 04:47:58;;;;;;;;;;;;;;;21.79;64.10;100596.88;7286213;19;152524;-60
2022/10/20 04:50:24;;;;;;;;;;;;;;;21.79;64.27;100597.69;7286822;19;153653;-59
2022/10/20 04:52:51;;;;;;;;;;;;;;;21.80;63.97;100602.19;7285829;19;153728;-60
2022/10/20 04:55:19;;;;;;;;;;;;;;;21.79;64.07;100599.69;7286219;19;152170;-60
2022/10/20 04:57:45;;;;;;;;;;;;;;;21.79;63.92;100594.06;7282674;19;153306;-60
2022/10/20 05:00:12;;;;;;;;;;;;;;;21.78;64.05;100598.84;7285432;19;154656;-59
2022/10/20 05:02:39;;;;;;;;;;;;;;;21.77;64.05;100591.56;7285585;19;151968;-59
2022/10/20 05:05:06;;;;;;;;;;;;;;;21.77;64.49;100590.72;7283913;19;153928;-59
2022/10/20 05:07:32;;;;;;;;;;;;;;;21.77;64.36;100577.50;7291747;19;152376;-59
2022/10/20 05:09:59;;;;;;;;;;;;;;;21.77;64.16;100585.09;7286422;19;153339;-59
2022/10/20 05:12:27;;;;;;;;;;;;;;;21.78;64.28;100583.94;7281823;19;153708;-60
2022/10/20 05:14:54;;;;;;;;;;;;;;;21.77;64.42;100582.28;7285413;19;154374;-59
2022/10/20 05:17:20;;;;;;;;;;;;;;;21.76;64.40;100573.03;7284301;19;153722;-60
2022/10/20 05:19:47;;;;;;;;;;;;;;;21.76;64.11;100573.03;7285205;19;154130;-60
2022/10/20 05:22:13;;;;;;;;;;;;;;;21.76;64.58;100558.16;7285874;19;152815;-60
2022/10/20 05:24:40;;;;;;;;;;;;;;;21.74;64.49;100556.50;7283515;19;152846;-60
2022/10/20 05:27:07;;;;;;;;;;;;;;;21.74;64.63;100562.13;7288100;19;153607;-59
2022/10/20 05:29:33;;;;;;;;;;;;;;;21.73;64.50;100552.03;7285916;19;153661;-60
2022/10/20 05:32:00;;;;;;;;;;;;;;;21.74;64.52;100544.41;7282295;19;153546;-60
2022/10/20 05:34:26;;;;;;;;;;;;;;;21.74;64.41;100541.59;7284596;19;152142;-60
2022/10/20 05:37:00;;;;;;;;;;;;;;;21.73;64.45;100529.53;7285541;19;154075;-60
2022/10/20 05:39:27;;;;;;;;;;;;;;;21.74;64.23;100535.97;7284014;19;154036;-59
2022/10/20 05:41:53;;;;;;;;;;;;;;;21.72;64.53;100530.66;7281739;19;152554;-60
2022/10/20 05:44:20;;;;;;;;;;;;;;;21.72;64.57;100524.22;7285462;19;153518;-59
2022/10/20 05:46:46;;;;;;;;;;;;;;;21.72;64.53;100524.22;7282986;19;153377;-60
2022/10/20 05:49:15;;;;;;;;;;;;;;;21.72;64.41;100521.41;7292374;19;152327;-59
2022/10/20 05:51:42;;;;;;;;;;;;;;;21.71;64.22;100511.34;7282931;19;153004;-59
2022/10/20 05:54:10;;;;;;;;;;;;;;;21.71;64.54;100516.97;7284796;19;151903;-60
2022/10/20 05:56:37;;;;;;;;;;;;;;;21.70;64.40;100513.31;7281000;19;152895;-60
2022/10/20 05:59:03;;;;;;;;;;;;;;;21.70;64.20;100506.84;7283156;19;152212;-59
2022/10/20 06:01:46;;;;;;;;;;;;;;;21.69;64.64;100510.81;7283985;19;152546;-59
2022/10/20 06:04:18;;;;;;;;;;;;;;;21.68;64.63;100515.59;7282244;19;152178;-60
2022/10/20 06:06:47;;;;;;;;;;;;;;;21.67;64.43;100522.38;7282016;19;154537;-59
2022/10/20 06:09:14;;;;;;;;;;;;;;;21.68;64.34;100524.03;7284219;19;151885;-59
2022/10/20 06:11:41;;;;;;;;;;;;;;;21.67;64.30;100527.16;7286693;19;152039;-59
2022/10/20 06:14:08;;;;;;;;;;;;;;;21.67;64.60;100530.81;7284115;19;151598;-60
2022/10/20 06:16:35;;;;;;;;;;;;;;;21.67;64.37;100530.81;7283756;19;153969;-59
2022/10/20 06:19:02;;;;;;;;;;;;;;;21.68;64.52;100531.66;7283573;19;153117;-59
2022/10/20 06:21:29;;;;;;;;;;;;;;;21.68;64.86;100529.66;7283053;19;152211;-60
2022/10/20 06:23:59;;;;;;;;;;;;;;;21.73;64.71;100534.31;7283600;19;152358;-60
2022/10/20 06:26:35;;;;;;;;;;;;;;;21.79;65.19;100518.97;7278571;19;153983;-60
2022/10/20 06:29:02;;;;;;;;;;;;;;;21.83;64.68;100530.38;7281012;19;154697;-60
2022/10/20 06:31:31;;;;;;;;;;;;;;;21.87;64.52;100511.69;7284612;19;153264;-60
2022/10/20 06:33:58;;;;;;;;;;;;;;;21.91;64.50;100513.50;7290287;19;153730;-60
2022/10/20 06:36:25;;;;;;;;;;;;;;;21.94;64.69;100509.25;7283852;19;152832;-60
2022/10/20 06:38:53;;;;;;;;;;;;;;;21.96;64.55;100507.75;7283293;19;154446;-60
2022/10/20 06:41:20;;;;;;;;;;;;;;;21.99;64.03;100520.31;7280112;19;152518;-60
2022/10/20 06:43:46;;;;;;;;;;;;;;;22.02;64.35;100508.44;7284581;19;152932;-60
2022/10/20 06:46:16;;;;;;;;;;;;;;;22.04;64.37;100514.53;7280902;19;154124;-60
2022/10/20 06:48:44;;;;;;;;;;;;;;;22.02;64.31;100500.84;7283607;19;152284;-61
2022/10/20 06:51:14;;;;;;;;;;;;;;;22.07;64.84;100514.75;7282503;19;152720;-59
2022/10/20 06:53:42;;;;;;;;;;;;;;;22.11;64.78;100512.09;7282037;19;153079;-60
2022/10/20 06:56:15;;;;;;;;;;;;;;;22.03;65.17;100502.47;7284768;19;153118;-61
2022/10/20 06:58:43;;;;;;;;;;;;;;;22.03;65.08;100508.09;7284027;19;153369;-59
2022/10/20 07:01:15;;;;;;;;;;;;;;;21.98;65.04;100502.66;7277712;19;151932;-60
2022/10/20 07:03:43;;;;;;;;;;;;;;;21.97;65.58;100500.16;7282257;19;152864;-59
2022/10/20 07:06:14;;;;;;;;;;;;;;;21.98;65.22;100490.56;7276444;19;154416;-59
2022/10/20 07:08:41;;;;;;;;;;;;;;;21.97;65.60;100477.66;7281678;19;152480;-60
2022/10/20 07:11:10;;;;;;;;;;;;;;;21.99;65.50;100478.13;7278812;19;153067;-60
2022/10/20 07:13:37;;;;;;;;;;;;;;;21.98;65.22;100482.97;7283195;19;153381;-60
2022/10/20 07:16:05;;;;;;;;;;;;;;;21.96;66.00;100461.91;7285674;19;153252;-59
2022/10/20 07:18:31;;;;;;;;;;;;;;;21.95;65.91;100461.09;7282839;19;153850;-59
2022/10/20 07:21:03;;;;;;;;;;;;;;;21.93;65.82;100471.03;7281766;19;154305;-59
2022/10/20 07:23:30;;;;;;;;;;;;;;;21.91;66.28;100460.06;7284080;19;152740;-59
2022/10/20 07:26:01;;;;;;;;;;;;;;;21.96;65.91;100453.47;7274838;19;153972;-59
2022/10/20 07:28:28;;;;;;;;;;;;;;;21.99;65.60;100452.81;7282946;19;153802;-58
2022/10/20 07:30:55;;;;;;;;;;;;;;;22.03;65.71;100459.47;7281273;19;153295;-59
2022/10/20 07:33:21;;;;;;;;;;;;;;;22.05;65.46;100457.97;7279744;19;152725;-59
2022/10/20 07:35:48;;;;;;;;;;;;;;;22.05;65.30;100457.97;7278959;19;152616;-59
2022/10/20 07:38:15;;;;;;;;;;;;;;;22.05;65.67;100454.31;7288753;19;152879;-59
2022/10/20 07:40:42;;;;;;;;;;;;;;;22.04;65.25;100463.91;7282167;19;152341;-60
2022/10/20 07:43:08;;;;;;;;;;;;;;;22.02;65.47;100469.88;7277676;19;153411;-59
2022/10/20 07:45:35;;;;;;;;;;;;;;;22.02;65.08;100469.88;7278693;19;154365;-59
2022/10/20 07:48:03;;;;;;;;;;;;;;;22.02;64.88;100475.50;7278597;19;152820;-59
2022/10/20 07:50:29;;;;;;;;;;;;;;;22.05;64.98;100472.03;7283545;19;153549;-59
2022/10/20 07:52:56;;;;;;;;;;;;;;;22.08;64.54;100478.97;7279995;19;153652;-60
2022/10/20 07:55:23;;;;;;;;;;;;;;;22.09;64.53;100481.47;7281818;19;152000;-60
2022/10/20 07:58:04;;;;;;;;;;;;;;;22.08;64.65;100479.78;7285705;19;153536;-60
2022/10/20 08:00:30;;;;;;;;;;;;;;;22.11;64.52;100489.56;7295620;19;154266;-60
2022/10/20 08:02:57;;;;;;;;;;;;;;;22.10;64.61;100480.31;7288320;19;152840;-60
2022/10/20 08:05:24;;;;;;;;;;;;;;;22.09;64.66;100484.28;7284486;19;154389;-60
2022/10/20 08:07:51;;;;;;;;;;;;;;;22.11;64.39;100483.94;7284562;19;151773;-60
2022/10/20 08:10:17;;;;;;;;;;;;;;;22.11;64.76;100486.75;7288282;19;153325;-60
2022/10/20 08:12:44;;;;;;;;;;;;;;;22.11;64.70;100489.56;7283359;19;153662;-60
2022/10/20 08:15:11;;;;;;;;;;;;;;;22.10;64.35;100483.13;7288390;19;152497;-60
2022/10/20 08:17:51;;;;;;;;;;;;;;;22.10;64.69;100488.75;7288385;19;153646;-60
2022/10/20 08:20:17;;;;;;;;;;;;;;;22.11;64.19;100486.75;7284998;19;153926;-60
2022/10/20 08:22:48;;;;;;;;;;;;;;;22.10;64.58;100490.72;7294178;19;152056;-60
2022/10/20 08:25:15;;;;;;;;;;;;;;;22.11;64.80;100484.78;7286347;19;152804;-60
2022/10/20 08:27:42;;;;;;;;;;;;;;;22.14;64.77;100472.03;7282988;19;152154;-60
2022/10/20 08:30:09;;;;;;;;;;;;;;;22.18;64.67;100475.81;7287318;19;152819;-60
2022/10/20 08:32:51;;;;;;;;;;;;;;;22.20;65.00;100475.50;7284543;19;154310;-60
2022/10/20 08:35:18;;;;;;;;;;;;;;;22.22;64.99;100474.00;7287283;19;153273;-60
2022/10/20 08:37:45;;;;;;;;;;;;;;;22.25;65.24;100479.00;7286999;19;153501;-60
2022/10/20 08:40:16;;;;;;;;;;;;;;;22.30;64.87;100478.00;7285521;19;154116;-60
2022/10/20 08:42:44;;;;;;;;;;;;;;;22.33;64.88;100460.44;7284262;19;152987;-61
2022/10/20 08:45:15;;;;;;;;;;;;;;;22.36;64.68;100460.59;7293146;19;152503;-61
2022/10/20 08:47:42;;;;;;;;;;;;;;;22.39;64.41;100457.13;7285396;19;152559;-61
2022/10/20 08:50:11;;;;;;;;;;;;;;;22.42;64.40;100452.81;7286408;19;152257;-61
2022/10/20 08:52:39;;;;;;;;;;;;;;;22.45;64.19;100452.13;7283323;19;152410;-61
2022/10/20 08:55:06;;;;;;;;;;;;;;;22.47;64.54;100464.72;7285901;19;152405;-61
2022/10/20 08:57:34;;;;;;;;;;;;;;;22.50;64.23;100454.78;7279011;19;152486;-61
2022/10/20 09:00:19;;;;;;;;;;;;;;;22.52;64.28;100458.94;7285462;19;153102;-61
2022/10/20 09:02:47;;;;;;;;;;;;;;;22.56;64.31;100464.72;7283843;19;152598;-59
2022/10/20 09:05:15;;;;;;;;;;;;;;;22.57;63.78;100455.94;7284497;19;153461;-59
2022/10/20 09:07:47;;;;;;;;;;;;;;;22.59;64.08;100466.84;7287987;19;154210;-59
2022/10/20 09:10:22;;;;;;;;;;;;;;;22.60;63.92;100460.06;7286899;19;153476;-60
2022/10/20 09:12:50;;;;;;;;;;;;;;;22.62;64.01;100458.56;7280979;19;153287;-60
2022/10/20 09:15:18;;;;;;;;;;;;;;;22.64;63.92;100455.41;7287409;19;153518;-60
2022/10/20 09:17:51;;;;;;;;;;;;;;;22.66;63.83;100460.72;7286624;19;152616;-60
2022/10/20 09:20:21;;;;;;;;;;;;;;;22.68;63.92;100462.03;7284518;19;154070;-60
2022/10/20 09:22:47;;;;;;;;;;;;;;;22.68;63.50;100459.22;7286381;19;152074;-60
2022/10/20 09:25:16;;;;;;;;;;;;;;;22.70;63.42;100458.91;7284602;19;155431;-60
2022/10/20 09:27:44;;;;;;;;;;;;;;;22.71;63.53;100461.41;7287905;19;153597;-60
2022/10/20 09:30:16;;;;;;;;;;;;;;;22.72;63.38;100457.41;7282906;19;152667;-60
2022/10/20 09:32:43;;;;;;;;;;;;;;;22.73;63.66;100461.06;7281912;19;153046;-59
2022/10/20 09:35:26;;;;;;;;;;;;;;;22.74;63.76;100457.06;7286226;19;153079;-60
2022/10/20 09:38:08;;;;;;;;;;;;;;;22.75;63.25;100456.75;7284817;19;153080;-60
2022/10/20 09:40:53;;;;;;;;;;;;;;;22.75;63.55;100453.09;7284906;19;154146;-60
2022/10/20 09:43:20;;;;;;;;;;;;;;;22.76;63.23;100452.75;7284952;19;152445;-60
2022/10/20 09:45:52;;;;;;;;;;;;;;;22.76;63.35;100447.13;7285491;19;153561;-60
2022/10/20 09:48:26;;;;;;;;;;;;;;;22.78;63.60;100443.97;7281878;19;154539;-60
2022/10/20 09:50:54;;;;;;;;;;;;;;;22.78;63.30;100442.00;7291387;19;153287;-60
2022/10/20 09:53:45;;;;;;;;;;;;;;;22.80;63.53;100441.66;7282061;19;154813;-60
2022/10/20 09:56:21;;;;;;;;;;;;;;;22.79;63.25;100449.28;7278679;19;152766;-60
2022/10/20 09:58:48;;;;;;;;;;;;;;;22.80;63.04;100448.13;7285572;19;152293;-60
2022/10/20 10:01:16;;;;;;;;;;;;;;;22.80;63.35;100450.94;7282891;19;154072;-59
2022/10/20 10:03:44;;;;;;;;;;;;;;;22.81;63.41;100448.94;7284361;19;151777;-59
2022/10/20 10:06:29;;;;;;;;;;;;;;;22.81;63.66;100451.75;7282985;19;154690;-59
2022/10/20 10:08:58;;;;;;;;;;;;;;;22.89;63.20;100454.56;7280901;19;152703;-59
2022/10/20 10:11:31;;;;;;;;;;;;;;;22.79;63.48;100448.44;7279884;19;152473;-58
2022/10/20 10:13:58;;;;;;;;;;;;;;;22.77;63.71;100445.13;7277003;19;154627;-59
2022/10/20 10:16:26;;;;;;;;;;;;;;;22.79;63.56;100438.00;7273563;19;153458;-59
2022/10/20 10:19:00;;;;;;;;;;;;;;;22.79;63.33;100421.13;7280619;19;152668;-59
2022/10/20 10:21:29;;;;;;;;;;;;;;;22.80;62.87;100424.75;7282614;19;154441;-58
2022/10/20 10:23:59;;;;;;;;;;;;;;;22.78;62.94;100418.63;7284296;19;151937;-59
2022/10/20 10:26:56;;;;;;;;;;;;;;;22.78;62.42;100398.91;7279797;19;152318;-59
2022/10/20 10:29:33;;;;;;;;;;;;;;;22.77;62.47;100402.88;7283305;19;153885;-59
2022/10/20 10:32:11;;;;;;;;;;;;;;;22.75;62.47;100399.59;7282473;19;153136;-58
2022/10/20 10:34:44;;;;;;;;;;;;;;;22.74;62.47;100387.50;7278702;19;153171;-59
2022/10/20 10:37:12;;;;;;;;;;;;;;;22.72;62.26;100377.72;7286781;19;152342;-59
2022/10/20 10:39:40;;;;;;;;;;;;;;;22.71;62.05;100392.97;7283796;19;152061;-58
2022/10/20 10:42:25;;;;;;;;;;;;;;;22.68;62.27;100390.78;7279210;19;153604;-58
2022/10/20 10:44:57;;;;;;;;;;;;;;;22.68;62.14;100379.53;7283044;19;153216;-58
2022/10/20 10:47:42;;;;;;;;;;;;;;;22.67;62.30;100387.13;7283205;19;153308;-58
2022/10/20 10:50:15;;;;;;;;;;;;;;;22.65;62.00;100383.03;7282120;19;153265;-58
2022/10/20 10:52:42;;;;;;;;;;;;;;;22.65;62.13;100383.03;7282981;19;152565;-58
2022/10/20 10:55:27;;;;;;;;;;;;;;;22.63;62.15;100372.91;7280655;19;153351;-58
2022/10/20 10:58:33;;;;;;;;;;;;;;;22.61;61.92;100372.44;7278621;19;156269;-59
2022/10/20 11:00:59;;;;;;;;;;;;;;;22.61;61.84;100368.78;7287019;19;152834;-59
2022/10/20 11:03:37;;;;;;;;;;;;;;;22.60;61.60;100361.50;7278921;19;155018;-58
2022/10/20 11:06:22;;;;;;;;;;;;;;;22.59;61.92;100369.13;7276619;19;153346;-58
2022/10/20 11:08:52;;;;;;;;;;;;;;;22.59;61.84;100363.50;7271432;19;153006;-59
2022/10/20 11:11:26;;;;;;;;;;;;;;;22.58;61.69;100363.81;7268807;19;152995;-59
2022/10/20 11:14:05;;;;;;;;;;;;;;;22.57;61.99;100365.84;7277479;19;152457;-58
2022/10/20 11:16:54;;;;;;;;;;;;;;;22.57;61.65;100354.56;7275615;19;152141;-65
2022/10/20 11:19:33;;;;;;;;;;;;;;;22.57;61.47;100356.56;7275588;19;154543;-59
2022/10/20 11:22:06;;;;;;;;;;;;;;;22.56;61.79;100346.44;7276258;19;152297;-59
2022/10/20 11:24:38;;;;;;;;;;;;;;;22.55;61.72;100351.25;7286235;19;152684;-59
2022/10/20 11:27:19;;;;;;;;;;;;;;;22.54;61.69;100351.56;7278179;19;152873;-61
2022/10/20 11:29:48;;;;;;;;;;;;;;;22.52;61.52;100345.47;7276162;19;151976;-59
2022/10/20 11:32:19;;;;;;;;;;;;;;;22.52;61.84;100348.28;7275241;19;153408;-58
2022/10/20 11:34:54;;;;;;;;;;;;;;;22.51;61.64;100349.44;7278993;19;152173;-58
2022/10/20 11:37:25;;;;;;;;;;;;;;;22.50;61.69;100356.22;7277802;19;154067;-58
2022/10/20 11:40:09;;;;;;;;;;;;;;;22.48;61.93;100342.50;7278181;19;154440;-58
2022/10/20 11:42:51;;;;;;;;;;;;;;;22.46;61.94;100344.81;7275666;19;152708;-58
2022/10/20 11:45:21;;;;;;;;;;;;;;;22.45;61.67;100336.72;7285086;19;152723;-58
2022/10/20 11:47:49;;;;;;;;;;;;;;;22.43;61.53;100339.88;7276713;19;152291;-58
2022/10/20 11:50:17;;;;;;;;;;;;;;;22.41;61.68;100339.38;7274384;19;154107;-58
2022/10/20 11:52:44;;;;;;;;;;;;;;;22.39;61.84;100344.53;7276318;19;153564;-58
2022/10/20 11:55:10;;;;;;;;;;;;;;;22.39;61.52;100340.88;7278305;19;151985;-58
2022/10/20 11:57:58;;;;;;;;;;;;;;;22.38;61.48;100334.44;7274826;19;152893;-58
2022/10/20 12:00:29;;;;;;;;;;;;;;;22.36;61.67;100324.66;7277921;19;157523;-58
2022/10/20 12:03:08;;;;;;;;;;;;;;;22.35;61.56;100325.84;7279409;19;153052;-59
2022/10/20 12:05:54;;;;;;;;;;;;;;;22.33;61.82;100308.44;7277618;19;153226;-58
2022/10/20 12:08:36;;;;;;;;;;;;;;;22.30;61.75;100304.31;7288253;19;153276;-58
2022/10/20 12:11:16;;;;;;;;;;;;;;;22.30;61.98;100309.94;7273139;19;153499;-59
2022/10/20 12:13:46;;;;;;;;;;;;;;;22.29;61.72;100305.47;7281726;19;154928;-59
2022/10/20 12:16:32;;;;;;;;;;;;;;;22.27;61.93;100304.97;7279350;19;153372;-59
2022/10/20 12:19:13;;;;;;;;;;;;;;;22.26;62.10;100292.06;7275244;19;152197;-59
2022/10/20 12:21:59;;;;;;;;;;;;;;;22.26;62.00;100294.06;7278054;19;153420;-59
2022/10/20 12:24:29;;;;;;;;;;;;;;;22.26;61.95;100296.88;7282009;19;152275;-59
2022/10/20 12:27:08;;;;;;;;;;;;;;;22.25;62.01;100286.78;7279146;19;153539;-59
2022/10/20 12:29:34;;;;;;;;;;;;;;;22.26;61.77;100282.81;7277485;19;153712;-59
2022/10/20 12:32:20;;;;;;;;;;;;;;;22.24;61.75;100263.44;7287844;19;151865;-59
2022/10/20 12:34:47;;;;;;;;;;;;;;;22.25;61.97;100264.28;7278136;19;153913;-59
2022/10/20 12:37:23;;;;;;;;;;;;;;;22.23;61.71;100267.41;7279835;19;154109;-59
2022/10/20 12:39:51;;;;;;;;;;;;;;;22.23;61.78;100266.59;7276701;19;152155;-58
2022/10/20 12:42:18;;;;;;;;;;;;;;;22.22;61.48;100268.56;7279377;19;154036;-58
2022/10/20 12:44:45;;;;;;;;;;;;;;;22.21;61.56;100261.31;7284995;19;152745;-58